sensor_id;sensor_type;location;lat;lon;timestamp;P1;durP1;ratioP1;P2;durP2;ratioP2
56999;SDS011;42891;50.006;21.964;2023-02-12T00:02:29;53.17;;;29.53;;
56999;SDS011;42891;50.006;21.964;2023-02-12T00:06:29;49.73;;;28.37;;
56999;SDS011;42891;50.006;21.964;2023-02-12T00:10:30;55.42;;;30.00;;
56999;SDS011;42891;50.006;21.964;2023-02-12T00:14:30;57.22;;;29.60;;
56999;SDS011;42891;50.006;21.964;2023-02-12T00:18:31;71.18;;;34.53;;
56999;SDS011;42891;50.006;21.964;2023-02-12T00:22:31;60.65;;;31.92;;
56999;SDS011;42891;50.006;21.964;2023-02-12T00:26:31;53.78;;;29.70;;
56999;SDS011;42891;50.006;21.964;2023-02-12T00:30:32;52.65;;;28.17;;
56999;SDS011;42891;50.006;21.964;2023-02-12T00:34:32;52.63;;;28.20;;
56999;SDS011;42891;50.006;21.964;2023-02-12T00:38:32;50.53;;;25.95;;
56999;SDS011;42891;50.006;21.964;2023-02-12T00:42:33;47.17;;;26.77;;
56999;SDS011;42891;50.006;21.964;2023-02-12T00:46:33;44.50;;;25.40;;
56999;SDS011;42891;50.006;21.964;2023-02-12T00:50:33;49.80;;;27.52;;
56999;SDS011;42891;50.006;21.964;2023-02-12T00:54:34;47.92;;;26.50;;
56999;SDS011;42891;50.006;21.964;2023-02-12T00:58:34;46.28;;;26.27;;
56999;SDS011;42891;50.006;21.964;2023-02-12T01:02:34;48.83;;;27.05;;
56999;SDS011;42891;50.006;21.964;2023-02-12T01:06:35;42.45;;;25.10;;
56999;SDS011;42891;50.006;21.964;2023-02-12T01:10:35;42.35;;;24.05;;
56999;SDS011;42891;50.006;21.964;2023-02-12T01:14:35;36.28;;;21.08;;
56999;SDS011;42891;50.006;21.964;2023-02-12T01:18:36;34.73;;;21.13;;
56999;SDS011;42891;50.006;21.964;2023-02-12T01:22:37;34.50;;;20.90;;
56999;SDS011;42891;50.006;21.964;2023-02-12T01:26:37;24.90;;;15.38;;
56999;SDS011;42891;50.006;21.964;2023-02-12T01:30:38;26.55;;;16.35;;
56999;SDS011;42891;50.006;21.964;2023-02-12T01:34:38;25.48;;;16.48;;
56999;SDS011;42891;50.006;21.964;2023-02-12T01:38:38;27.45;;;16.98;;
56999;SDS011;42891;50.006;21.964;2023-02-12T01:42:39;22.88;;;15.32;;
56999;SDS011;42891;50.006;21.964;2023-02-12T01:46:39;24.73;;;14.45;;
56999;SDS011;42891;50.006;21.964;2023-02-12T01:50:40;22.60;;;14.98;;
56999;SDS011;42891;50.006;21.964;2023-02-12T01:54:42;26.15;;;14.73;;
56999;SDS011;42891;50.006;21.964;2023-02-12T01:58:43;26.10;;;16.25;;
56999;SDS011;42891;50.006;21.964;2023-02-12T02:02:46;26.08;;;15.60;;
56999;SDS011;42891;50.006;21.964;2023-02-12T02:11:04;29.15;;;16.88;;
56999;SDS011;42891;50.006;21.964;2023-02-12T02:15:25;28.92;;;16.65;;
56999;SDS011;42891;50.006;21.964;2023-02-12T02:19:37;28.50;;;16.98;;
56999;SDS011;42891;50.006;21.964;2023-02-12T02:24:10;29.08;;;16.83;;
56999;SDS011;42891;50.006;21.964;2023-02-12T02:32:28;33.53;;;17.88;;
56999;SDS011;42891;50.006;21.964;2023-02-12T02:36:45;29.50;;;17.33;;
56999;SDS011;42891;50.006;21.964;2023-02-12T02:41:00;29.33;;;17.00;;
56999;SDS011;42891;50.006;21.964;2023-02-12T02:45:11;29.00;;;17.80;;
56999;SDS011;42891;50.006;21.964;2023-02-12T02:49:17;26.63;;;15.38;;
56999;SDS011;42891;50.006;21.964;2023-02-12T02:57:50;23.45;;;14.93;;
56999;SDS011;42891;50.006;21.964;2023-02-12T03:01:56;24.90;;;15.27;;
56999;SDS011;42891;50.006;21.964;2023-02-12T03:06:02;21.00;;;13.73;;
56999;SDS011;42891;50.006;21.964;2023-02-12T03:10:16;25.02;;;14.50;;
56999;SDS011;42891;50.006;21.964;2023-02-12T03:14:25;26.92;;;15.20;;
56999;SDS011;42891;50.006;21.964;2023-02-12T03:18:41;22.35;;;13.98;;
56999;SDS011;42891;50.006;21.964;2023-02-12T03:22:53;23.80;;;14.65;;
56999;SDS011;42891;50.006;21.964;2023-02-12T03:31:10;26.83;;;14.38;;
56999;SDS011;42891;50.006;21.964;2023-02-12T03:44:03;24.75;;;13.10;;
56999;SDS011;42891;50.006;21.964;2023-02-12T03:52:19;23.70;;;13.95;;
56999;SDS011;42891;50.006;21.964;2023-02-12T03:56:39;26.55;;;15.25;;
56999;SDS011;42891;50.006;21.964;2023-02-12T04:00:46;7.95;;;5.72;;
56999;SDS011;42891;50.006;21.964;2023-02-12T04:04:47;8.07;;;4.45;;
56999;SDS011;42891;50.006;21.964;2023-02-12T04:08:48;9.10;;;4.20;;
56999;SDS011;42891;50.006;21.964;2023-02-12T04:12:53;6.88;;;3.95;;
56999;SDS011;42891;50.006;21.964;2023-02-12T04:17:19;5.82;;;3.50;;
56999;SDS011;42891;50.006;21.964;2023-02-12T04:30:14;4.57;;;3.50;;
56999;SDS011;42891;50.006;21.964;2023-02-12T04:34:58;5.70;;;3.90;;
56999;SDS011;42891;50.006;21.964;2023-02-12T04:38:50;7.43;;;4.10;;
56999;SDS011;42891;50.006;21.964;2023-02-12T04:42:54;9.15;;;4.03;;
56999;SDS011;42891;50.006;21.964;2023-02-12T04:46:55;7.07;;;3.70;;
56999;SDS011;42891;50.006;21.964;2023-02-12T04:50:55;6.97;;;3.80;;
56999;SDS011;42891;50.006;21.964;2023-02-12T04:54:55;5.55;;;3.30;;
56999;SDS011;42891;50.006;21.964;2023-02-12T04:58:56;4.97;;;3.28;;
56999;SDS011;42891;50.006;21.964;2023-02-12T05:02:56;4.78;;;2.92;;
56999;SDS011;42891;50.006;21.964;2023-02-12T05:06:57;4.30;;;3.25;;
56999;SDS011;42891;50.006;21.964;2023-02-12T05:11:02;5.73;;;3.60;;
56999;SDS011;42891;50.006;21.964;2023-02-12T05:15:06;7.00;;;4.03;;
56999;SDS011;42891;50.006;21.964;2023-02-12T05:19:08;5.25;;;3.40;;
56999;SDS011;42891;50.006;21.964;2023-02-12T05:23:08;4.75;;;3.38;;
56999;SDS011;42891;50.006;21.964;2023-02-12T05:27:09;4.22;;;3.47;;
56999;SDS011;42891;50.006;21.964;2023-02-12T05:31:10;5.37;;;3.20;;
56999;SDS011;42891;50.006;21.964;2023-02-12T05:35:15;6.78;;;3.40;;
56999;SDS011;42891;50.006;21.964;2023-02-12T05:39:16;4.97;;;3.17;;
56999;SDS011;42891;50.006;21.964;2023-02-12T05:43:16;6.18;;;3.70;;
56999;SDS011;42891;50.006;21.964;2023-02-12T05:47:16;10.23;;;6.13;;
56999;SDS011;42891;50.006;21.964;2023-02-12T05:51:23;5.88;;;4.32;;
56999;SDS011;42891;50.006;21.964;2023-02-12T05:55:25;6.85;;;3.75;;
56999;SDS011;42891;50.006;21.964;2023-02-12T05:59:26;4.75;;;3.55;;
56999;SDS011;42891;50.006;21.964;2023-02-12T06:03:26;5.20;;;3.67;;
56999;SDS011;42891;50.006;21.964;2023-02-12T06:07:26;6.75;;;3.70;;
56999;SDS011;42891;50.006;21.964;2023-02-12T06:11:27;4.55;;;3.42;;
56999;SDS011;42891;50.006;21.964;2023-02-12T06:15:27;5.78;;;3.80;;
56999;SDS011;42891;50.006;21.964;2023-02-12T06:19:28;4.32;;;3.55;;
56999;SDS011;42891;50.006;21.964;2023-02-12T06:23:28;4.60;;;3.60;;
56999;SDS011;42891;50.006;21.964;2023-02-12T06:27:28;5.75;;;3.97;;
56999;SDS011;42891;50.006;21.964;2023-02-12T06:31:30;5.22;;;3.70;;
56999;SDS011;42891;50.006;21.964;2023-02-12T06:35:36;5.50;;;3.75;;
56999;SDS011;42891;50.006;21.964;2023-02-12T06:39:36;7.85;;;4.80;;
56999;SDS011;42891;50.006;21.964;2023-02-12T06:43:37;5.75;;;3.90;;
56999;SDS011;42891;50.006;21.964;2023-02-12T06:47:37;9.75;;;4.75;;
56999;SDS011;42891;50.006;21.964;2023-02-12T06:51:39;7.03;;;3.83;;
56999;SDS011;42891;50.006;21.964;2023-02-12T06:55:40;10.05;;;5.95;;
56999;SDS011;42891;50.006;21.964;2023-02-12T06:59:40;6.60;;;4.97;;
56999;SDS011;42891;50.006;21.964;2023-02-12T07:03:41;8.73;;;5.22;;
56999;SDS011;42891;50.006;21.964;2023-02-12T07:07:41;7.75;;;4.78;;
56999;SDS011;42891;50.006;21.964;2023-02-12T07:11:41;12.60;;;6.20;;
56999;SDS011;42891;50.006;21.964;2023-02-12T07:15:42;22.17;;;8.85;;
56999;SDS011;42891;50.006;21.964;2023-02-12T07:19:42;99.43;;;32.33;;
56999;SDS011;42891;50.006;21.964;2023-02-12T07:23:46;65.00;;;23.07;;
56999;SDS011;42891;50.006;21.964;2023-02-12T07:27:47;16.77;;;8.27;;
56999;SDS011;42891;50.006;21.964;2023-02-12T07:31:48;6.03;;;3.85;;
56999;SDS011;42891;50.006;21.964;2023-02-12T07:35:48;6.22;;;4.53;;
56999;SDS011;42891;50.006;21.964;2023-02-12T07:39:48;6.55;;;4.65;;
56999;SDS011;42891;50.006;21.964;2023-02-12T07:43:52;6.78;;;3.75;;
56999;SDS011;42891;50.006;21.964;2023-02-12T07:47:54;4.35;;;3.58;;
56999;SDS011;42891;50.006;21.964;2023-02-12T07:51:54;6.35;;;3.58;;
56999;SDS011;42891;50.006;21.964;2023-02-12T07:56:02;6.40;;;3.92;;
56999;SDS011;42891;50.006;21.964;2023-02-12T08:00:14;5.47;;;3.55;;
56999;SDS011;42891;50.006;21.964;2023-02-12T08:04:15;7.85;;;5.00;;
56999;SDS011;42891;50.006;21.964;2023-02-12T08:08:18;5.22;;;4.15;;
56999;SDS011;42891;50.006;21.964;2023-02-12T08:12:18;7.82;;;5.45;;
56999;SDS011;42891;50.006;21.964;2023-02-12T08:16:19;13.48;;;8.27;;
56999;SDS011;42891;50.006;21.964;2023-02-12T08:20:22;9.85;;;6.13;;
56999;SDS011;42891;50.006;21.964;2023-02-12T08:24:22;10.13;;;7.28;;
56999;SDS011;42891;50.006;21.964;2023-02-12T08:28:23;12.23;;;6.82;;
56999;SDS011;42891;50.006;21.964;2023-02-12T08:32:24;10.05;;;5.20;;
56999;SDS011;42891;50.006;21.964;2023-02-12T08:36:28;4.50;;;3.67;;
56999;SDS011;42891;50.006;21.964;2023-02-12T08:40:31;6.00;;;3.83;;
56999;SDS011;42891;50.006;21.964;2023-02-12T08:44:32;10.18;;;6.43;;
56999;SDS011;42891;50.006;21.964;2023-02-12T08:48:32;6.40;;;4.38;;
56999;SDS011;42891;50.006;21.964;2023-02-12T08:52:34;4.88;;;3.80;;
56999;SDS011;42891;50.006;21.964;2023-02-12T08:56:34;9.52;;;6.43;;
56999;SDS011;42891;50.006;21.964;2023-02-12T09:00:35;9.60;;;4.88;;
56999;SDS011;42891;50.006;21.964;2023-02-12T09:04:35;3.87;;;3.33;;
56999;SDS011;42891;50.006;21.964;2023-02-12T09:08:37;5.07;;;4.07;;
56999;SDS011;42891;50.006;21.964;2023-02-12T09:12:38;8.45;;;5.82;;
56999;SDS011;42891;50.006;21.964;2023-02-12T09:16:38;7.10;;;5.10;;
56999;SDS011;42891;50.006;21.964;2023-02-12T09:20:43;10.75;;;5.90;;
56999;SDS011;42891;50.006;21.964;2023-02-12T09:24:44;5.07;;;4.30;;
56999;SDS011;42891;50.006;21.964;2023-02-12T09:28:44;15.55;;;7.30;;
56999;SDS011;42891;50.006;21.964;2023-02-12T09:32:46;12.77;;;6.20;;
56999;SDS011;42891;50.006;21.964;2023-02-12T09:36:46;6.15;;;4.22;;
56999;SDS011;42891;50.006;21.964;2023-02-12T09:53:29;4.25;;;3.72;;
56999;SDS011;42891;50.006;21.964;2023-02-12T09:57:31;7.05;;;4.88;;
56999;SDS011;42891;50.006;21.964;2023-02-12T10:01:34;7.22;;;5.80;;
56999;SDS011;42891;50.006;21.964;2023-02-12T10:05:36;7.63;;;4.72;;
56999;SDS011;42891;50.006;21.964;2023-02-12T10:09:46;4.78;;;3.83;;
56999;SDS011;42891;50.006;21.964;2023-02-12T10:14:22;5.25;;;4.47;;
56999;SDS011;42891;50.006;21.964;2023-02-12T10:22:56;5.03;;;4.30;;
56999;SDS011;42891;50.006;21.964;2023-02-12T10:31:03;7.10;;;5.43;;
56999;SDS011;42891;50.006;21.964;2023-02-12T10:35:16;8.02;;;4.75;;
56999;SDS011;42891;50.006;21.964;2023-02-12T10:39:22;6.30;;;4.93;;
56999;SDS011;42891;50.006;21.964;2023-02-12T10:43:25;18.63;;;9.18;;
56999;SDS011;42891;50.006;21.964;2023-02-12T10:47:25;4.63;;;4.15;;
56999;SDS011;42891;50.006;21.964;2023-02-12T10:55:33;8.45;;;4.68;;
56999;SDS011;42891;50.006;21.964;2023-02-12T10:59:35;10.05;;;5.63;;
56999;SDS011;42891;50.006;21.964;2023-02-12T11:03:36;8.25;;;5.68;;
56999;SDS011;42891;50.006;21.964;2023-02-12T11:07:46;17.70;;;9.07;;
56999;SDS011;42891;50.006;21.964;2023-02-12T11:11:50;9.43;;;5.95;;
56999;SDS011;42891;50.006;21.964;2023-02-12T11:15:50;8.00;;;6.47;;
56999;SDS011;42891;50.006;21.964;2023-02-12T11:20:01;5.88;;;4.93;;
56999;SDS011;42891;50.006;21.964;2023-02-12T11:24:45;8.95;;;5.93;;
56999;SDS011;42891;50.006;21.964;2023-02-12T11:28:30;14.32;;;8.57;;
56999;SDS011;42891;50.006;21.964;2023-02-12T11:32:32;16.30;;;8.55;;
56999;SDS011;42891;50.006;21.964;2023-02-12T11:36:33;8.00;;;5.63;;
56999;SDS011;42891;50.006;21.964;2023-02-12T11:40:37;16.38;;;8.70;;
56999;SDS011;42891;50.006;21.964;2023-02-12T11:44:38;10.25;;;5.72;;
56999;SDS011;42891;50.006;21.964;2023-02-12T11:48:41;13.25;;;7.93;;
56999;SDS011;42891;50.006;21.964;2023-02-12T11:52:48;12.88;;;7.55;;
56999;SDS011;42891;50.006;21.964;2023-02-12T11:56:51;13.13;;;7.53;;
56999;SDS011;42891;50.006;21.964;2023-02-12T12:00:57;7.10;;;5.30;;
56999;SDS011;42891;50.006;21.964;2023-02-12T12:05:07;10.15;;;5.90;;
56999;SDS011;42891;50.006;21.964;2023-02-12T12:09:20;10.27;;;6.55;;
56999;SDS011;42891;50.006;21.964;2023-02-12T12:13:35;10.90;;;7.53;;
56999;SDS011;42891;50.006;21.964;2023-02-12T12:17:46;10.30;;;6.78;;
56999;SDS011;42891;50.006;21.964;2023-02-12T12:26:30;10.30;;;7.15;;
56999;SDS011;42891;50.006;21.964;2023-02-12T12:30:38;13.57;;;8.90;;
56999;SDS011;42891;50.006;21.964;2023-02-12T12:34:47;11.05;;;7.45;;
56999;SDS011;42891;50.006;21.964;2023-02-12T12:43:12;12.23;;;9.07;;
56999;SDS011;42891;50.006;21.964;2023-02-12T12:52:23;16.83;;;9.40;;
56999;SDS011;42891;50.006;21.964;2023-02-12T13:09:39;14.38;;;7.65;;
56999;SDS011;42891;50.006;21.964;2023-02-12T13:18:19;15.02;;;8.20;;
56999;SDS011;42891;50.006;21.964;2023-02-12T13:26:53;11.75;;;7.85;;
56999;SDS011;42891;50.006;21.964;2023-02-12T13:30:56;17.13;;;9.18;;
56999;SDS011;42891;50.006;21.964;2023-02-12T13:35:00;12.90;;;8.38;;
56999;SDS011;42891;50.006;21.964;2023-02-12T13:39:07;12.57;;;8.98;;
56999;SDS011;42891;50.006;21.964;2023-02-12T13:47:58;15.85;;;9.98;;
56999;SDS011;42891;50.006;21.964;2023-02-12T14:00:55;11.90;;;8.05;;
56999;SDS011;42891;50.006;21.964;2023-02-12T14:04:56;15.90;;;8.60;;
56999;SDS011;42891;50.006;21.964;2023-02-12T14:09:09;10.32;;;7.38;;
56999;SDS011;42891;50.006;21.964;2023-02-12T14:25:43;16.92;;;9.98;;
56999;SDS011;42891;50.006;21.964;2023-02-12T14:42:40;16.27;;;9.60;;
56999;SDS011;42891;50.006;21.964;2023-02-12T14:46:44;26.60;;;12.02;;
56999;SDS011;42891;50.006;21.964;2023-02-12T14:50:45;24.02;;;13.75;;
56999;SDS011;42891;50.006;21.964;2023-02-12T14:58:56;10.73;;;8.83;;
56999;SDS011;42891;50.006;21.964;2023-02-12T15:07:16;13.27;;;8.75;;
56999;SDS011;42891;50.006;21.964;2023-02-12T15:15:33;22.05;;;11.80;;
56999;SDS011;42891;50.006;21.964;2023-02-12T15:23:43;31.20;;;16.83;;
56999;SDS011;42891;50.006;21.964;2023-02-12T15:27:44;27.77;;;16.60;;
56999;SDS011;42891;50.006;21.964;2023-02-12T15:31:51;26.02;;;16.20;;
56999;SDS011;42891;50.006;21.964;2023-02-12T15:35:54;34.33;;;20.08;;
56999;SDS011;42891;50.006;21.964;2023-02-12T15:39:56;48.92;;;30.23;;
56999;SDS011;42891;50.006;21.964;2023-02-12T15:44:00;54.63;;;34.92;;
56999;SDS011;42891;50.006;21.964;2023-02-12T15:52:18;41.88;;;25.60;;
56999;SDS011;42891;50.006;21.964;2023-02-12T15:56:23;34.55;;;20.80;;
56999;SDS011;42891;50.006;21.964;2023-02-12T16:00:31;30.02;;;20.13;;
56999;SDS011;42891;50.006;21.964;2023-02-12T16:04:38;36.35;;;21.95;;
56999;SDS011;42891;50.006;21.964;2023-02-12T16:08:42;35.55;;;23.20;;
56999;SDS011;42891;50.006;21.964;2023-02-12T16:12:45;38.25;;;22.63;;
56999;SDS011;42891;50.006;21.964;2023-02-12T16:16:47;82.97;;;42.10;;
56999;SDS011;42891;50.006;21.964;2023-02-12T16:21:00;88.07;;;42.90;;
56999;SDS011;42891;50.006;21.964;2023-02-12T16:25:02;243.27;;;103.18;;
56999;SDS011;42891;50.006;21.964;2023-02-12T16:29:14;152.98;;;66.47;;
56999;SDS011;42891;50.006;21.964;2023-02-12T16:33:40;211.30;;;85.55;;
56999;SDS011;42891;50.006;21.964;2023-02-12T16:37:51;152.25;;;62.47;;
56999;SDS011;42891;50.006;21.964;2023-02-12T16:41:55;164.23;;;65.88;;
56999;SDS011;42891;50.006;21.964;2023-02-12T16:46:00;93.95;;;40.58;;
56999;SDS011;42891;50.006;21.964;2023-02-12T16:50:03;120.55;;;48.15;;
56999;SDS011;42891;50.006;21.964;2023-02-12T16:54:04;130.85;;;55.03;;
56999;SDS011;42891;50.006;21.964;2023-02-12T16:58:26;160.95;;;66.55;;
56999;SDS011;42891;50.006;21.964;2023-02-12T17:02:27;495.67;;;222.95;;
56999;SDS011;42891;50.006;21.964;2023-02-12T17:06:28;370.45;;;164.05;;
56999;SDS011;42891;50.006;21.964;2023-02-12T17:10:30;287.33;;;122.93;;
56999;SDS011;42891;50.006;21.964;2023-02-12T17:14:30;215.35;;;95.22;;
56999;SDS011;42891;50.006;21.964;2023-02-12T17:18:30;216.35;;;88.28;;
56999;SDS011;42891;50.006;21.964;2023-02-12T17:22:31;218.85;;;103.78;;
56999;SDS011;42891;50.006;21.964;2023-02-12T17:26:32;205.98;;;97.90;;
56999;SDS011;42891;50.006;21.964;2023-02-12T17:30:32;201.47;;;94.50;;
56999;SDS011;42891;50.006;21.964;2023-02-12T17:34:33;200.75;;;91.88;;
56999;SDS011;42891;50.006;21.964;2023-02-12T17:38:36;213.95;;;105.07;;
56999;SDS011;42891;50.006;21.964;2023-02-12T17:42:36;213.70;;;100.47;;
56999;SDS011;42891;50.006;21.964;2023-02-12T17:46:36;229.63;;;105.40;;
56999;SDS011;42891;50.006;21.964;2023-02-12T17:50:37;242.73;;;110.18;;
56999;SDS011;42891;50.006;21.964;2023-02-12T17:54:38;333.88;;;148.15;;
56999;SDS011;42891;50.006;21.964;2023-02-12T17:58:39;302.88;;;140.65;;
56999;SDS011;42891;50.006;21.964;2023-02-12T18:02:40;286.45;;;131.30;;
56999;SDS011;42891;50.006;21.964;2023-02-12T18:06:40;221.87;;;101.87;;
56999;SDS011;42891;50.006;21.964;2023-02-12T18:10:44;267.83;;;126.63;;
56999;SDS011;42891;50.006;21.964;2023-02-12T18:14:44;245.73;;;112.60;;
56999;SDS011;42891;50.006;21.964;2023-02-12T18:18:44;244.80;;;110.68;;
56999;SDS011;42891;50.006;21.964;2023-02-12T18:22:45;242.88;;;115.88;;
56999;SDS011;42891;50.006;21.964;2023-02-12T18:26:46;277.15;;;126.13;;
56999;SDS011;42891;50.006;21.964;2023-02-12T18:30:53;290.77;;;139.02;;
56999;SDS011;42891;50.006;21.964;2023-02-12T18:34:54;273.55;;;128.48;;
56999;SDS011;42891;50.006;21.964;2023-02-12T18:38:54;267.65;;;126.95;;
56999;SDS011;42891;50.006;21.964;2023-02-12T18:42:54;277.30;;;132.77;;
56999;SDS011;42891;50.006;21.964;2023-02-12T18:46:55;257.88;;;121.97;;
56999;SDS011;42891;50.006;21.964;2023-02-12T18:51:01;273.10;;;130.30;;
56999;SDS011;42891;50.006;21.964;2023-02-12T18:55:03;283.88;;;141.38;;
56999;SDS011;42891;50.006;21.964;2023-02-12T18:59:05;385.85;;;203.20;;
56999;SDS011;42891;50.006;21.964;2023-02-12T19:03:06;392.35;;;206.27;;
56999;SDS011;42891;50.006;21.964;2023-02-12T19:07:07;554.38;;;285.05;;
56999;SDS011;42891;50.006;21.964;2023-02-12T19:11:08;439.63;;;209.20;;
56999;SDS011;42891;50.006;21.964;2023-02-12T19:15:09;351.92;;;148.55;;
56999;SDS011;42891;50.006;21.964;2023-02-12T19:19:10;317.67;;;143.15;;
56999;SDS011;42891;50.006;21.964;2023-02-12T19:23:11;309.35;;;141.77;;
56999;SDS011;42891;50.006;21.964;2023-02-12T19:27:12;293.38;;;138.38;;
56999;SDS011;42891;50.006;21.964;2023-02-12T19:35:15;335.13;;;148.60;;
56999;SDS011;42891;50.006;21.964;2023-02-12T19:39:16;297.45;;;138.15;;
56999;SDS011;42891;50.006;21.964;2023-02-12T19:43:19;232.30;;;108.53;;
56999;SDS011;42891;50.006;21.964;2023-02-12T19:47:19;252.55;;;119.13;;
56999;SDS011;42891;50.006;21.964;2023-02-12T19:51:20;281.92;;;148.65;;
56999;SDS011;42891;50.006;21.964;2023-02-12T19:55:21;238.55;;;123.10;;
56999;SDS011;42891;50.006;21.964;2023-02-12T19:59:22;244.13;;;121.93;;
56999;SDS011;42891;50.006;21.964;2023-02-12T20:03:24;275.88;;;128.90;;
56999;SDS011;42891;50.006;21.964;2023-02-12T20:07:25;242.32;;;112.82;;
56999;SDS011;42891;50.006;21.964;2023-02-12T20:11:26;271.27;;;118.88;;
56999;SDS011;42891;50.006;21.964;2023-02-12T20:15:28;239.65;;;113.57;;
56999;SDS011;42891;50.006;21.964;2023-02-12T20:19:29;209.75;;;104.30;;
56999;SDS011;42891;50.006;21.964;2023-02-12T20:23:30;235.43;;;107.25;;
56999;SDS011;42891;50.006;21.964;2023-02-12T20:27:31;222.77;;;106.15;;
56999;SDS011;42891;50.006;21.964;2023-02-12T20:31:34;227.93;;;108.97;;
56999;SDS011;42891;50.006;21.964;2023-02-12T20:35:36;215.13;;;107.20;;
56999;SDS011;42891;50.006;21.964;2023-02-12T20:39:36;250.27;;;122.32;;
56999;SDS011;42891;50.006;21.964;2023-02-12T20:43:37;245.70;;;125.45;;
56999;SDS011;42891;50.006;21.964;2023-02-12T20:47:37;243.05;;;119.32;;
56999;SDS011;42891;50.006;21.964;2023-02-12T20:51:38;216.40;;;107.47;;
56999;SDS011;42891;50.006;21.964;2023-02-12T20:55:38;194.57;;;96.93;;
56999;SDS011;42891;50.006;21.964;2023-02-12T20:59:38;157.50;;;75.55;;
56999;SDS011;42891;50.006;21.964;2023-02-12T21:03:39;218.30;;;110.80;;
56999;SDS011;42891;50.006;21.964;2023-02-12T21:07:39;216.70;;;109.70;;
56999;SDS011;42891;50.006;21.964;2023-02-12T21:11:40;382.55;;;137.45;;
56999;SDS011;42891;50.006;21.964;2023-02-12T21:15:43;349.95;;;136.10;;
56999;SDS011;42891;50.006;21.964;2023-02-12T21:19:44;345.58;;;127.35;;
56999;SDS011;42891;50.006;21.964;2023-02-12T21:23:44;298.42;;;119.32;;
56999;SDS011;42891;50.006;21.964;2023-02-12T21:27:44;287.92;;;114.40;;
56999;SDS011;42891;50.006;21.964;2023-02-12T21:31:46;262.08;;;95.85;;
56999;SDS011;42891;50.006;21.964;2023-02-12T21:35:48;229.27;;;94.85;;
56999;SDS011;42891;50.006;21.964;2023-02-12T21:39:48;222.45;;;98.20;;
56999;SDS011;42891;50.006;21.964;2023-02-12T21:43:50;251.65;;;97.82;;
56999;SDS011;42891;50.006;21.964;2023-02-12T21:47:52;213.32;;;85.45;;
56999;SDS011;42891;50.006;21.964;2023-02-12T21:51:53;171.25;;;76.18;;
56999;SDS011;42891;50.006;21.964;2023-02-12T21:55:59;183.82;;;77.47;;
56999;SDS011;42891;50.006;21.964;2023-02-12T22:00:01;166.63;;;76.43;;
56999;SDS011;42891;50.006;21.964;2023-02-12T22:04:02;165.98;;;73.28;;
56999;SDS011;42891;50.006;21.964;2023-02-12T22:08:04;203.27;;;85.38;;
56999;SDS011;42891;50.006;21.964;2023-02-12T22:12:04;194.20;;;81.80;;
56999;SDS011;42891;50.006;21.964;2023-02-12T22:16:12;167.63;;;71.78;;
56999;SDS011;42891;50.006;21.964;2023-02-12T22:20:13;197.98;;;78.75;;
56999;SDS011;42891;50.006;21.964;2023-02-12T22:24:14;234.43;;;94.13;;
56999;SDS011;42891;50.006;21.964;2023-02-12T22:28:15;217.82;;;92.95;;
56999;SDS011;42891;50.006;21.964;2023-02-12T22:32:15;166.65;;;75.07;;
56999;SDS011;42891;50.006;21.964;2023-02-12T22:36:15;156.77;;;73.38;;
56999;SDS011;42891;50.006;21.964;2023-02-12T22:40:23;146.77;;;67.47;;
56999;SDS011;42891;50.006;21.964;2023-02-12T22:44:24;136.55;;;62.92;;
56999;SDS011;42891;50.006;21.964;2023-02-12T22:48:25;122.57;;;57.53;;
56999;SDS011;42891;50.006;21.964;2023-02-12T22:52:27;130.15;;;58.67;;
56999;SDS011;42891;50.006;21.964;2023-02-12T22:56:27;134.02;;;60.75;;
56999;SDS011;42891;50.006;21.964;2023-02-12T23:00:27;143.07;;;62.42;;
56999;SDS011;42891;50.006;21.964;2023-02-12T23:04:28;161.32;;;66.57;;
56999;SDS011;42891;50.006;21.964;2023-02-12T23:08:28;151.13;;;63.88;;
56999;SDS011;42891;50.006;21.964;2023-02-12T23:12:29;131.27;;;58.08;;
56999;SDS011;42891;50.006;21.964;2023-02-12T23:16:29;108.35;;;48.95;;
56999;SDS011;42891;50.006;21.964;2023-02-12T23:20:29;103.55;;;49.33;;
56999;SDS011;42891;50.006;21.964;2023-02-12T23:24:30;100.10;;;46.20;;
56999;SDS011;42891;50.006;21.964;2023-02-12T23:28:30;97.93;;;46.50;;
56999;SDS011;42891;50.006;21.964;2023-02-12T23:32:30;100.45;;;49.47;;
56999;SDS011;42891;50.006;21.964;2023-02-12T23:36:31;147.23;;;62.15;;
56999;SDS011;42891;50.006;21.964;2023-02-12T23:40:32;141.82;;;56.88;;
56999;SDS011;42891;50.006;21.964;2023-02-12T23:44:32;95.28;;;43.58;;
56999;SDS011;42891;50.006;21.964;2023-02-12T23:48:33;82.55;;;38.85;;
56999;SDS011;42891;50.006;21.964;2023-02-12T23:52:33;80.10;;;38.85;;
56999;SDS011;42891;50.006;21.964;2023-02-12T23:56:33;81.68;;;36.20;;
